sensor_id;sensor_type;location;lat;lon;timestamp;P1;durP1;ratioP1;P2;durP2;ratioP2
40072;SDS011;25774;52.256;9.356;2023-05-07T00:01:10;24.97;;;15.47;;
40072;SDS011;25774;52.256;9.356;2023-05-07T00:03:36;29.40;;;15.97;;
40072;SDS011;25774;52.256;9.356;2023-05-07T00:06:01;26.87;;;17.20;;
40072;SDS011;25774;52.256;9.356;2023-05-07T00:08:26;27.23;;;17.23;;
40072;SDS011;25774;52.256;9.356;2023-05-07T00:10:52;26.60;;;17.27;;
40072;SDS011;25774;52.256;9.356;2023-05-07T00:13:17;25.87;;;17.23;;
40072;SDS011;25774;52.256;9.356;2023-05-07T00:15:42;30.17;;;18.07;;
40072;SDS011;25774;52.256;9.356;2023-05-07T00:18:07;26.33;;;16.30;;
40072;SDS011;25774;52.256;9.356;2023-05-07T00:20:32;25.47;;;16.47;;
40072;SDS011;25774;52.256;9.356;2023-05-07T00:22:58;28.40;;;18.20;;
40072;SDS011;25774;52.256;9.356;2023-05-07T00:25:23;26.70;;;17.33;;
40072;SDS011;25774;52.256;9.356;2023-05-07T00:27:49;28.20;;;18.50;;
40072;SDS011;25774;52.256;9.356;2023-05-07T00:32:41;45.13;;;19.77;;
40072;SDS011;25774;52.256;9.356;2023-05-07T00:35:06;28.73;;;19.03;;
40072;SDS011;25774;52.256;9.356;2023-05-07T00:37:31;29.63;;;18.77;;
40072;SDS011;25774;52.256;9.356;2023-05-07T00:39:57;33.10;;;20.43;;
40072;SDS011;25774;52.256;9.356;2023-05-07T00:42:22;32.43;;;19.07;;
40072;SDS011;25774;52.256;9.356;2023-05-07T00:44:47;27.90;;;17.73;;
40072;SDS011;25774;52.256;9.356;2023-05-07T00:47:12;26.50;;;16.17;;
40072;SDS011;25774;52.256;9.356;2023-05-07T00:49:39;31.55;;;18.98;;
40072;SDS011;25774;52.256;9.356;2023-05-07T00:52:09;28.75;;;17.80;;
40072;SDS011;25774;52.256;9.356;2023-05-07T00:54:35;28.40;;;17.48;;
40072;SDS011;25774;52.256;9.356;2023-05-07T00:57:02;29.83;;;17.13;;
40072;SDS011;25774;52.256;9.356;2023-05-07T00:59:27;30.00;;;17.58;;
40072;SDS011;25774;52.256;9.356;2023-05-07T01:01:52;28.17;;;17.23;;
40072;SDS011;25774;52.256;9.356;2023-05-07T01:04:19;28.03;;;17.57;;
40072;SDS011;25774;52.256;9.356;2023-05-07T01:06:44;31.77;;;18.25;;
40072;SDS011;25774;52.256;9.356;2023-05-07T01:09:10;30.52;;;17.05;;
40072;SDS011;25774;52.256;9.356;2023-05-07T01:11:36;26.75;;;17.60;;
40072;SDS011;25774;52.256;9.356;2023-05-07T01:14:01;27.47;;;17.77;;
40072;SDS011;25774;52.256;9.356;2023-05-07T01:16:27;26.43;;;17.00;;
40072;SDS011;25774;52.256;9.356;2023-05-07T01:18:52;35.17;;;17.70;;
40072;SDS011;25774;52.256;9.356;2023-05-07T01:21:18;27.40;;;17.27;;
40072;SDS011;25774;52.256;9.356;2023-05-07T01:23:44;25.03;;;15.73;;
40072;SDS011;25774;52.256;9.356;2023-05-07T01:26:16;30.00;;;16.98;;
40072;SDS011;25774;52.256;9.356;2023-05-07T01:28:41;30.17;;;18.52;;
40072;SDS011;25774;52.256;9.356;2023-05-07T01:31:06;28.13;;;17.55;;
40072;SDS011;25774;52.256;9.356;2023-05-07T01:33:33;27.30;;;16.02;;
40072;SDS011;25774;52.256;9.356;2023-05-07T01:36:00;28.38;;;16.98;;
40072;SDS011;25774;52.256;9.356;2023-05-07T01:38:28;29.95;;;18.13;;
40072;SDS011;25774;52.256;9.356;2023-05-07T01:43:18;30.90;;;17.02;;
40072;SDS011;25774;52.256;9.356;2023-05-07T01:45:44;29.80;;;16.53;;
40072;SDS011;25774;52.256;9.356;2023-05-07T01:48:09;29.65;;;18.70;;
40072;SDS011;25774;52.256;9.356;2023-05-07T01:50:35;31.20;;;17.77;;
40072;SDS011;25774;52.256;9.356;2023-05-07T01:55:27;26.42;;;15.15;;
40072;SDS011;25774;52.256;9.356;2023-05-07T01:57:52;28.33;;;16.83;;
40072;SDS011;25774;52.256;9.356;2023-05-07T02:00:17;28.57;;;17.23;;
40072;SDS011;25774;52.256;9.356;2023-05-07T02:02:44;28.92;;;16.67;;
40072;SDS011;25774;52.256;9.356;2023-05-07T02:05:09;33.33;;;16.47;;
40072;SDS011;25774;52.256;9.356;2023-05-07T02:07:35;27.65;;;16.25;;
40072;SDS011;25774;52.256;9.356;2023-05-07T02:10:02;26.50;;;16.00;;
40072;SDS011;25774;52.256;9.356;2023-05-07T02:12:27;29.40;;;17.60;;
40072;SDS011;25774;52.256;9.356;2023-05-07T02:14:53;30.20;;;15.23;;
40072;SDS011;25774;52.256;9.356;2023-05-07T02:17:18;31.87;;;16.40;;
40072;SDS011;25774;52.256;9.356;2023-05-07T02:19:43;31.90;;;17.43;;
40072;SDS011;25774;52.256;9.356;2023-05-07T02:22:09;32.63;;;16.60;;
40072;SDS011;25774;52.256;9.356;2023-05-07T02:24:34;28.52;;;15.38;;
40072;SDS011;25774;52.256;9.356;2023-05-07T02:27:00;27.53;;;15.67;;
40072;SDS011;25774;52.256;9.356;2023-05-07T02:29:25;28.90;;;17.43;;
40072;SDS011;25774;52.256;9.356;2023-05-07T02:31:50;26.80;;;14.67;;
40072;SDS011;25774;52.256;9.356;2023-05-07T02:34:18;32.28;;;16.38;;
40072;SDS011;25774;52.256;9.356;2023-05-07T02:36:43;27.50;;;16.03;;
40072;SDS011;25774;52.256;9.356;2023-05-07T02:39:08;29.27;;;16.17;;
40072;SDS011;25774;52.256;9.356;2023-05-07T02:41:34;28.00;;;14.77;;
40072;SDS011;25774;52.256;9.356;2023-05-07T02:44:00;31.77;;;17.83;;
40072;SDS011;25774;52.256;9.356;2023-05-07T02:46:26;29.80;;;15.30;;
40072;SDS011;25774;52.256;9.356;2023-05-07T02:48:51;26.95;;;16.95;;
40072;SDS011;25774;52.256;9.356;2023-05-07T02:51:19;28.07;;;16.27;;
40072;SDS011;25774;52.256;9.356;2023-05-07T02:53:44;30.63;;;16.98;;
40072;SDS011;25774;52.256;9.356;2023-05-07T02:56:11;28.17;;;15.17;;
40072;SDS011;25774;52.256;9.356;2023-05-07T03:01:01;24.13;;;14.10;;
40072;SDS011;25774;52.256;9.356;2023-05-07T03:03:26;28.37;;;14.67;;
40072;SDS011;25774;52.256;9.356;2023-05-07T03:05:51;28.20;;;14.73;;
40072;SDS011;25774;52.256;9.356;2023-05-07T03:08:18;27.13;;;15.80;;
40072;SDS011;25774;52.256;9.356;2023-05-07T03:10:43;25.70;;;14.30;;
40072;SDS011;25774;52.256;9.356;2023-05-07T03:13:09;25.13;;;12.97;;
40072;SDS011;25774;52.256;9.356;2023-05-07T03:15:34;25.20;;;14.35;;
40072;SDS011;25774;52.256;9.356;2023-05-07T03:18:00;24.98;;;13.82;;
40072;SDS011;25774;52.256;9.356;2023-05-07T03:20:25;24.17;;;13.53;;
40072;SDS011;25774;52.256;9.356;2023-05-07T03:22:50;24.70;;;13.53;;
40072;SDS011;25774;52.256;9.356;2023-05-07T03:25:15;24.50;;;13.37;;
40072;SDS011;25774;52.256;9.356;2023-05-07T03:27:41;22.70;;;12.87;;
40072;SDS011;25774;52.256;9.356;2023-05-07T03:30:07;18.83;;;11.50;;
40072;SDS011;25774;52.256;9.356;2023-05-07T03:32:32;23.30;;;12.32;;
40072;SDS011;25774;52.256;9.356;2023-05-07T03:34:58;26.45;;;13.75;;
40072;SDS011;25774;52.256;9.356;2023-05-07T03:37:23;20.80;;;12.80;;
40072;SDS011;25774;52.256;9.356;2023-05-07T03:39:48;22.33;;;12.00;;
40072;SDS011;25774;52.256;9.356;2023-05-07T03:42:15;18.93;;;11.63;;
40072;SDS011;25774;52.256;9.356;2023-05-07T03:44:41;24.83;;;13.15;;
40072;SDS011;25774;52.256;9.356;2023-05-07T03:47:06;20.52;;;12.23;;
40072;SDS011;25774;52.256;9.356;2023-05-07T03:49:31;22.07;;;12.73;;
40072;SDS011;25774;52.256;9.356;2023-05-07T03:51:57;24.13;;;13.30;;
40072;SDS011;25774;52.256;9.356;2023-05-07T03:54:23;21.23;;;11.38;;
40072;SDS011;25774;52.256;9.356;2023-05-07T03:56:48;20.17;;;12.17;;
40072;SDS011;25774;52.256;9.356;2023-05-07T03:59:13;20.97;;;11.87;;
40072;SDS011;25774;52.256;9.356;2023-05-07T04:01:38;21.17;;;12.47;;
40072;SDS011;25774;52.256;9.356;2023-05-07T04:04:04;20.63;;;12.23;;
40072;SDS011;25774;52.256;9.356;2023-05-07T04:06:29;21.53;;;11.83;;
40072;SDS011;25774;52.256;9.356;2023-05-07T04:08:55;17.38;;;11.25;;
40072;SDS011;25774;52.256;9.356;2023-05-07T04:11:20;21.47;;;11.73;;
40072;SDS011;25774;52.256;9.356;2023-05-07T04:13:45;19.77;;;11.87;;
40072;SDS011;25774;52.256;9.356;2023-05-07T04:16:11;18.13;;;11.37;;
40072;SDS011;25774;52.256;9.356;2023-05-07T04:18:36;17.10;;;10.90;;
40072;SDS011;25774;52.256;9.356;2023-05-07T04:21:01;19.70;;;11.17;;
40072;SDS011;25774;52.256;9.356;2023-05-07T04:23:26;20.07;;;11.13;;
40072;SDS011;25774;52.256;9.356;2023-05-07T04:25:51;17.80;;;10.97;;
40072;SDS011;25774;52.256;9.356;2023-05-07T04:28:17;22.03;;;12.50;;
40072;SDS011;25774;52.256;9.356;2023-05-07T04:30:42;19.42;;;11.43;;
40072;SDS011;25774;52.256;9.356;2023-05-07T04:33:07;16.57;;;11.13;;
40072;SDS011;25774;52.256;9.356;2023-05-07T04:35:33;21.63;;;11.80;;
40072;SDS011;25774;52.256;9.356;2023-05-07T04:37:58;18.80;;;11.10;;
40072;SDS011;25774;52.256;9.356;2023-05-07T04:40:23;22.50;;;12.23;;
40072;SDS011;25774;52.256;9.356;2023-05-07T04:42:50;17.90;;;11.30;;
40072;SDS011;25774;52.256;9.356;2023-05-07T04:45:15;19.52;;;11.38;;
40072;SDS011;25774;52.256;9.356;2023-05-07T04:47:40;22.67;;;12.13;;
40072;SDS011;25774;52.256;9.356;2023-05-07T04:50:06;18.63;;;11.23;;
40072;SDS011;25774;52.256;9.356;2023-05-07T04:52:32;18.63;;;11.02;;
40072;SDS011;25774;52.256;9.356;2023-05-07T04:54:59;17.70;;;11.10;;
40072;SDS011;25774;52.256;9.356;2023-05-07T04:57:25;20.00;;;11.93;;
40072;SDS011;25774;52.256;9.356;2023-05-07T04:59:51;21.63;;;11.10;;
40072;SDS011;25774;52.256;9.356;2023-05-07T05:02:16;22.30;;;11.57;;
40072;SDS011;25774;52.256;9.356;2023-05-07T05:04:41;17.77;;;10.23;;
40072;SDS011;25774;52.256;9.356;2023-05-07T05:07:07;18.00;;;11.00;;
40072;SDS011;25774;52.256;9.356;2023-05-07T05:09:32;16.03;;;10.60;;
40072;SDS011;25774;52.256;9.356;2023-05-07T05:11:58;16.93;;;10.17;;
40072;SDS011;25774;52.256;9.356;2023-05-07T05:16:49;17.08;;;10.10;;
40072;SDS011;25774;52.256;9.356;2023-05-07T05:19:14;15.27;;;9.63;;
40072;SDS011;25774;52.256;9.356;2023-05-07T05:21:39;15.53;;;9.50;;
40072;SDS011;25774;52.256;9.356;2023-05-07T05:24:05;15.60;;;9.73;;
40072;SDS011;25774;52.256;9.356;2023-05-07T05:26:30;15.63;;;10.13;;
40072;SDS011;25774;52.256;9.356;2023-05-07T05:28:55;15.80;;;9.30;;
40072;SDS011;25774;52.256;9.356;2023-05-07T05:31:20;14.00;;;8.60;;
40072;SDS011;25774;52.256;9.356;2023-05-07T05:33:46;17.33;;;9.80;;
40072;SDS011;25774;52.256;9.356;2023-05-07T05:36:11;15.20;;;9.17;;
40072;SDS011;25774;52.256;9.356;2023-05-07T05:38:38;18.50;;;10.18;;
40072;SDS011;25774;52.256;9.356;2023-05-07T05:41:03;19.37;;;9.83;;
40072;SDS011;25774;52.256;9.356;2023-05-07T05:43:28;15.77;;;9.47;;
40072;SDS011;25774;52.256;9.356;2023-05-07T05:45:55;15.73;;;9.37;;
40072;SDS011;25774;52.256;9.356;2023-05-07T05:48:20;13.35;;;8.65;;
40072;SDS011;25774;52.256;9.356;2023-05-07T05:50:45;15.00;;;9.18;;
40072;SDS011;25774;52.256;9.356;2023-05-07T05:53:10;16.63;;;8.50;;
40072;SDS011;25774;52.256;9.356;2023-05-07T05:55:35;15.40;;;8.97;;
40072;SDS011;25774;52.256;9.356;2023-05-07T05:58:02;15.63;;;9.60;;
40072;SDS011;25774;52.256;9.356;2023-05-07T06:00:27;14.55;;;8.52;;
40072;SDS011;25774;52.256;9.356;2023-05-07T06:02:52;14.63;;;8.70;;
40072;SDS011;25774;52.256;9.356;2023-05-07T06:05:18;18.20;;;9.00;;
40072;SDS011;25774;52.256;9.356;2023-05-07T06:07:43;13.33;;;8.87;;
40072;SDS011;25774;52.256;9.356;2023-05-07T06:10:08;14.17;;;8.80;;
40072;SDS011;25774;52.256;9.356;2023-05-07T06:12:34;15.77;;;9.30;;
40072;SDS011;25774;52.256;9.356;2023-05-07T06:14:59;14.45;;;7.93;;
40072;SDS011;25774;52.256;9.356;2023-05-07T06:17:25;13.60;;;8.60;;
40072;SDS011;25774;52.256;9.356;2023-05-07T06:19:50;14.83;;;7.90;;
40072;SDS011;25774;52.256;9.356;2023-05-07T06:22:16;13.38;;;7.78;;
40072;SDS011;25774;52.256;9.356;2023-05-07T06:24:41;16.10;;;8.57;;
40072;SDS011;25774;52.256;9.356;2023-05-07T06:27:06;11.77;;;7.07;;
40072;SDS011;25774;52.256;9.356;2023-05-07T06:29:32;13.93;;;7.93;;
40072;SDS011;25774;52.256;9.356;2023-05-07T06:32:07;16.60;;;8.65;;
40072;SDS011;25774;52.256;9.356;2023-05-07T06:34:33;13.80;;;8.40;;
40072;SDS011;25774;52.256;9.356;2023-05-07T06:36:58;14.53;;;7.60;;
40072;SDS011;25774;52.256;9.356;2023-05-07T06:39:23;13.13;;;7.80;;
40072;SDS011;25774;52.256;9.356;2023-05-07T06:41:48;14.57;;;8.80;;
40072;SDS011;25774;52.256;9.356;2023-05-07T06:44:13;13.70;;;8.77;;
40072;SDS011;25774;52.256;9.356;2023-05-07T06:46:39;13.50;;;8.35;;
40072;SDS011;25774;52.256;9.356;2023-05-07T06:49:05;12.73;;;7.57;;
40072;SDS011;25774;52.256;9.356;2023-05-07T06:51:31;13.37;;;8.20;;
40072;SDS011;25774;52.256;9.356;2023-05-07T06:53:56;14.38;;;7.97;;
40072;SDS011;25774;52.256;9.356;2023-05-07T06:56:21;12.87;;;7.47;;
40072;SDS011;25774;52.256;9.356;2023-05-07T06:58:47;13.18;;;8.27;;
40072;SDS011;25774;52.256;9.356;2023-05-07T07:01:14;13.87;;;7.83;;
40072;SDS011;25774;52.256;9.356;2023-05-07T07:03:40;13.05;;;8.05;;
40072;SDS011;25774;52.256;9.356;2023-05-07T07:06:05;12.13;;;7.00;;
40072;SDS011;25774;52.256;9.356;2023-05-07T07:08:30;15.67;;;8.43;;
40072;SDS011;25774;52.256;9.356;2023-05-07T07:10:55;13.33;;;7.17;;
40072;SDS011;25774;52.256;9.356;2023-05-07T07:13:22;13.87;;;7.83;;
40072;SDS011;25774;52.256;9.356;2023-05-07T07:15:47;12.82;;;7.60;;
40072;SDS011;25774;52.256;9.356;2023-05-07T07:18:12;10.43;;;6.40;;
40072;SDS011;25774;52.256;9.356;2023-05-07T07:20:37;11.87;;;7.33;;
40072;SDS011;25774;52.256;9.356;2023-05-07T07:23:03;9.87;;;6.50;;
40072;SDS011;25774;52.256;9.356;2023-05-07T07:25:28;11.93;;;7.37;;
40072;SDS011;25774;52.256;9.356;2023-05-07T07:27:53;13.77;;;6.72;;
40072;SDS011;25774;52.256;9.356;2023-05-07T07:30:19;11.73;;;7.30;;
40072;SDS011;25774;52.256;9.356;2023-05-07T07:35:11;11.63;;;7.07;;
40072;SDS011;25774;52.256;9.356;2023-05-07T07:37:36;11.77;;;6.50;;
40072;SDS011;25774;52.256;9.356;2023-05-07T07:40:01;12.33;;;7.33;;
40072;SDS011;25774;52.256;9.356;2023-05-07T07:42:26;11.47;;;6.83;;
40072;SDS011;25774;52.256;9.356;2023-05-07T07:44:52;12.97;;;6.87;;
40072;SDS011;25774;52.256;9.356;2023-05-07T07:47:17;12.97;;;7.23;;
40072;SDS011;25774;52.256;9.356;2023-05-07T07:49:42;10.40;;;6.50;;
40072;SDS011;25774;52.256;9.356;2023-05-07T07:52:07;13.03;;;7.80;;
40072;SDS011;25774;52.256;9.356;2023-05-07T07:54:32;12.87;;;7.47;;
40072;SDS011;25774;52.256;9.356;2023-05-07T07:56:58;12.20;;;6.90;;
40072;SDS011;25774;52.256;9.356;2023-05-07T07:59:23;10.30;;;6.23;;
40072;SDS011;25774;52.256;9.356;2023-05-07T08:01:48;11.83;;;6.80;;
40072;SDS011;25774;52.256;9.356;2023-05-07T08:04:15;11.38;;;6.75;;
40072;SDS011;25774;52.256;9.356;2023-05-07T08:06:40;11.87;;;6.40;;
40072;SDS011;25774;52.256;9.356;2023-05-07T08:09:05;9.93;;;6.00;;
40072;SDS011;25774;52.256;9.356;2023-05-07T08:11:31;10.77;;;6.33;;
40072;SDS011;25774;52.256;9.356;2023-05-07T08:13:57;11.02;;;6.72;;
40072;SDS011;25774;52.256;9.356;2023-05-07T08:16:22;11.07;;;6.30;;
40072;SDS011;25774;52.256;9.356;2023-05-07T08:18:47;10.40;;;5.27;;
40072;SDS011;25774;52.256;9.356;2023-05-07T08:21:12;9.50;;;5.93;;
40072;SDS011;25774;52.256;9.356;2023-05-07T08:23:38;14.40;;;7.50;;
40072;SDS011;25774;52.256;9.356;2023-05-07T08:26:03;12.77;;;6.50;;
40072;SDS011;25774;52.256;9.356;2023-05-07T08:28:28;10.25;;;5.22;;
40072;SDS011;25774;52.256;9.356;2023-05-07T08:30:54;8.40;;;5.27;;
40072;SDS011;25774;52.256;9.356;2023-05-07T08:33:21;10.05;;;5.88;;
40072;SDS011;25774;52.256;9.356;2023-05-07T08:35:46;8.87;;;5.30;;
40072;SDS011;25774;52.256;9.356;2023-05-07T08:38:12;8.23;;;4.97;;
40072;SDS011;25774;52.256;9.356;2023-05-07T08:43:05;8.95;;;5.15;;
40072;SDS011;25774;52.256;9.356;2023-05-07T08:45:30;8.70;;;5.07;;
40072;SDS011;25774;52.256;9.356;2023-05-07T08:48:04;7.85;;;5.30;;
40072;SDS011;25774;52.256;9.356;2023-05-07T08:50:30;10.43;;;5.97;;
40072;SDS011;25774;52.256;9.356;2023-05-07T08:52:55;10.23;;;5.10;;
40072;SDS011;25774;52.256;9.356;2023-05-07T08:57:47;10.60;;;5.20;;
40072;SDS011;25774;52.256;9.356;2023-05-07T09:00:13;9.30;;;5.35;;
40072;SDS011;25774;52.256;9.356;2023-05-07T09:02:38;9.17;;;5.73;;
40072;SDS011;25774;52.256;9.356;2023-05-07T09:05:03;12.10;;;5.63;;
40072;SDS011;25774;52.256;9.356;2023-05-07T09:07:29;7.17;;;4.47;;
40072;SDS011;25774;52.256;9.356;2023-05-07T09:09:55;8.57;;;4.90;;
40072;SDS011;25774;52.256;9.356;2023-05-07T09:12:20;10.93;;;5.57;;
40072;SDS011;25774;52.256;9.356;2023-05-07T09:14:46;10.17;;;5.40;;
40072;SDS011;25774;52.256;9.356;2023-05-07T09:17:12;8.38;;;4.95;;
40072;SDS011;25774;52.256;9.356;2023-05-07T09:19:37;8.80;;;5.03;;
40072;SDS011;25774;52.256;9.356;2023-05-07T09:22:03;7.90;;;4.90;;
40072;SDS011;25774;52.256;9.356;2023-05-07T09:24:28;7.93;;;5.35;;
40072;SDS011;25774;52.256;9.356;2023-05-07T09:26:58;9.00;;;4.70;;
40072;SDS011;25774;52.256;9.356;2023-05-07T09:29:24;7.97;;;5.35;;
40072;SDS011;25774;52.256;9.356;2023-05-07T09:31:49;11.38;;;5.07;;
40072;SDS011;25774;52.256;9.356;2023-05-07T09:34:16;8.30;;;5.20;;
40072;SDS011;25774;52.256;9.356;2023-05-07T09:36:41;11.07;;;5.40;;
40072;SDS011;25774;52.256;9.356;2023-05-07T09:39:07;9.93;;;6.10;;
40072;SDS011;25774;52.256;9.356;2023-05-07T09:41:32;9.65;;;5.57;;
40072;SDS011;25774;52.256;9.356;2023-05-07T09:43:57;9.70;;;5.77;;
40072;SDS011;25774;52.256;9.356;2023-05-07T09:46:27;9.10;;;5.60;;
40072;SDS011;25774;52.256;9.356;2023-05-07T09:48:55;8.75;;;5.50;;
40072;SDS011;25774;52.256;9.356;2023-05-07T09:51:23;12.38;;;6.70;;
40072;SDS011;25774;52.256;9.356;2023-05-07T09:53:52;9.95;;;5.25;;
40072;SDS011;25774;52.256;9.356;2023-05-07T09:58:43;10.23;;;5.53;;
40072;SDS011;25774;52.256;9.356;2023-05-07T10:01:10;10.25;;;6.53;;
40072;SDS011;25774;52.256;9.356;2023-05-07T10:03:36;9.50;;;6.07;;
40072;SDS011;25774;52.256;9.356;2023-05-07T10:06:03;11.18;;;6.05;;
40072;SDS011;25774;52.256;9.356;2023-05-07T10:08:30;8.57;;;6.13;;
40072;SDS011;25774;52.256;9.356;2023-05-07T10:10:55;8.65;;;6.25;;
40072;SDS011;25774;52.256;9.356;2023-05-07T10:13:20;9.90;;;6.03;;
40072;SDS011;25774;52.256;9.356;2023-05-07T10:15:46;11.17;;;6.10;;
40072;SDS011;25774;52.256;9.356;2023-05-07T10:18:11;9.52;;;6.30;;
40072;SDS011;25774;52.256;9.356;2023-05-07T10:20:37;9.67;;;5.80;;
40072;SDS011;25774;52.256;9.356;2023-05-07T10:23:04;9.43;;;5.78;;
40072;SDS011;25774;52.256;9.356;2023-05-07T10:25:29;8.02;;;5.45;;
40072;SDS011;25774;52.256;9.356;2023-05-07T10:27:55;10.38;;;5.65;;
40072;SDS011;25774;52.256;9.356;2023-05-07T10:32:48;8.50;;;5.57;;
40072;SDS011;25774;52.256;9.356;2023-05-07T10:35:29;9.00;;;5.53;;
40072;SDS011;25774;52.256;9.356;2023-05-07T10:37:55;11.63;;;5.68;;
40072;SDS011;25774;52.256;9.356;2023-05-07T10:40:21;7.97;;;5.33;;
40072;SDS011;25774;52.256;9.356;2023-05-07T10:45:15;9.37;;;5.27;;
40072;SDS011;25774;52.256;9.356;2023-05-07T10:50:26;10.77;;;6.18;;
40072;SDS011;25774;52.256;9.356;2023-05-07T10:55:37;8.50;;;5.35;;
40072;SDS011;25774;52.256;9.356;2023-05-07T10:58:22;8.77;;;5.43;;
40072;SDS011;25774;52.256;9.356;2023-05-07T11:00:48;9.25;;;5.13;;
40072;SDS011;25774;52.256;9.356;2023-05-07T11:03:13;8.60;;;5.68;;
40072;SDS011;25774;52.256;9.356;2023-05-07T11:05:40;9.38;;;4.95;;
40072;SDS011;25774;52.256;9.356;2023-05-07T11:08:05;7.70;;;5.43;;
40072;SDS011;25774;52.256;9.356;2023-05-07T11:13:15;8.23;;;4.85;;
40072;SDS011;25774;52.256;9.356;2023-05-07T11:15:47;9.00;;;5.70;;
40072;SDS011;25774;52.256;9.356;2023-05-07T11:18:16;10.23;;;6.13;;
40072;SDS011;25774;52.256;9.356;2023-05-07T11:20:52;7.97;;;5.15;;
40072;SDS011;25774;52.256;9.356;2023-05-07T11:23:54;8.10;;;5.45;;
40072;SDS011;25774;52.256;9.356;2023-05-07T11:26:18;8.43;;;5.47;;
40072;SDS011;25774;52.256;9.356;2023-05-07T11:28:43;9.38;;;5.85;;
40072;SDS011;25774;52.256;9.356;2023-05-07T11:31:09;11.73;;;6.87;;
40072;SDS011;25774;52.256;9.356;2023-05-07T11:33:34;8.77;;;6.35;;
40072;SDS011;25774;52.256;9.356;2023-05-07T11:36:00;9.68;;;6.47;;
40072;SDS011;25774;52.256;9.356;2023-05-07T11:38:26;10.65;;;6.43;;
40072;SDS011;25774;52.256;9.356;2023-05-07T11:40:54;11.35;;;6.55;;
40072;SDS011;25774;52.256;9.356;2023-05-07T11:43:20;9.00;;;5.95;;
40072;SDS011;25774;52.256;9.356;2023-05-07T11:45:45;9.10;;;5.93;;
40072;SDS011;25774;52.256;9.356;2023-05-07T11:48:11;16.45;;;7.95;;
40072;SDS011;25774;52.256;9.356;2023-05-07T11:50:39;7.72;;;5.15;;
40072;SDS011;25774;52.256;9.356;2023-05-07T11:53:15;13.50;;;5.97;;
40072;SDS011;25774;52.256;9.356;2023-05-07T11:55:42;50.35;;;9.52;;
40072;SDS011;25774;52.256;9.356;2023-05-07T11:58:08;10.47;;;5.27;;
40072;SDS011;25774;52.256;9.356;2023-05-07T12:00:34;10.60;;;5.47;;
40072;SDS011;25774;52.256;9.356;2023-05-07T12:03:03;11.50;;;6.27;;
40072;SDS011;25774;52.256;9.356;2023-05-07T12:05:28;9.85;;;6.40;;
40072;SDS011;25774;52.256;9.356;2023-05-07T12:07:55;10.65;;;5.65;;
40072;SDS011;25774;52.256;9.356;2023-05-07T12:10:21;8.25;;;5.57;;
40072;SDS011;25774;52.256;9.356;2023-05-07T12:12:46;10.17;;;5.83;;
40072;SDS011;25774;52.256;9.356;2023-05-07T12:15:13;8.17;;;4.97;;
40072;SDS011;25774;52.256;9.356;2023-05-07T12:17:40;8.20;;;5.45;;
40072;SDS011;25774;52.256;9.356;2023-05-07T12:20:05;7.90;;;5.37;;
40072;SDS011;25774;52.256;9.356;2023-05-07T12:22:31;8.60;;;5.30;;
40072;SDS011;25774;52.256;9.356;2023-05-07T12:24:57;13.87;;;6.10;;
40072;SDS011;25774;52.256;9.356;2023-05-07T12:27:22;9.38;;;5.78;;
40072;SDS011;25774;52.256;9.356;2023-05-07T12:29:49;15.00;;;6.47;;
40072;SDS011;25774;52.256;9.356;2023-05-07T12:32:15;7.57;;;5.07;;
40072;SDS011;25774;52.256;9.356;2023-05-07T12:34:41;15.70;;;6.05;;
40072;SDS011;25774;52.256;9.356;2023-05-07T12:37:06;7.15;;;4.72;;
40072;SDS011;25774;52.256;9.356;2023-05-07T12:39:31;10.57;;;5.53;;
40072;SDS011;25774;52.256;9.356;2023-05-07T12:41:58;7.20;;;4.72;;
40072;SDS011;25774;52.256;9.356;2023-05-07T12:44:25;9.90;;;5.72;;
40072;SDS011;25774;52.256;9.356;2023-05-07T12:46:51;8.45;;;5.18;;
40072;SDS011;25774;52.256;9.356;2023-05-07T12:49:16;12.77;;;5.70;;
40072;SDS011;25774;52.256;9.356;2023-05-07T12:51:43;6.80;;;4.72;;
40072;SDS011;25774;52.256;9.356;2023-05-07T12:54:08;9.03;;;4.60;;
40072;SDS011;25774;52.256;9.356;2023-05-07T12:56:35;17.27;;;5.17;;
40072;SDS011;25774;52.256;9.356;2023-05-07T12:59:00;10.63;;;4.15;;
40072;SDS011;25774;52.256;9.356;2023-05-07T13:01:33;7.53;;;4.85;;
40072;SDS011;25774;52.256;9.356;2023-05-07T13:04:05;8.82;;;4.93;;
40072;SDS011;25774;52.256;9.356;2023-05-07T13:06:30;14.00;;;5.68;;
40072;SDS011;25774;52.256;9.356;2023-05-07T13:08:56;9.27;;;4.45;;
40072;SDS011;25774;52.256;9.356;2023-05-07T13:11:21;23.73;;;5.73;;
40072;SDS011;25774;52.256;9.356;2023-05-07T13:13:47;14.13;;;4.95;;
40072;SDS011;25774;52.256;9.356;2023-05-07T13:16:12;14.50;;;5.20;;
40072;SDS011;25774;52.256;9.356;2023-05-07T13:18:38;9.43;;;4.70;;
40072;SDS011;25774;52.256;9.356;2023-05-07T13:21:04;7.47;;;4.32;;
40072;SDS011;25774;52.256;9.356;2023-05-07T13:23:29;18.60;;;6.37;;
40072;SDS011;25774;52.256;9.356;2023-05-07T13:25:54;9.20;;;4.40;;
40072;SDS011;25774;52.256;9.356;2023-05-07T13:28:21;14.00;;;5.07;;
40072;SDS011;25774;52.256;9.356;2023-05-07T13:30:46;11.48;;;4.88;;
40072;SDS011;25774;52.256;9.356;2023-05-07T13:33:12;6.90;;;4.22;;
40072;SDS011;25774;52.256;9.356;2023-05-07T13:35:38;13.13;;;4.40;;
40072;SDS011;25774;52.256;9.356;2023-05-07T13:38:04;6.82;;;3.95;;
40072;SDS011;25774;52.256;9.356;2023-05-07T13:40:30;5.35;;;3.65;;
40072;SDS011;25774;52.256;9.356;2023-05-07T13:45:20;4.43;;;3.10;;
40072;SDS011;25774;52.256;9.356;2023-05-07T13:47:46;4.78;;;3.17;;
40072;SDS011;25774;52.256;9.356;2023-05-07T13:50:13;4.80;;;2.80;;
40072;SDS011;25774;52.256;9.356;2023-05-07T13:55:05;5.25;;;3.10;;
40072;SDS011;25774;52.256;9.356;2023-05-07T13:57:30;6.50;;;3.40;;
40072;SDS011;25774;52.256;9.356;2023-05-07T13:59:56;7.00;;;3.90;;
40072;SDS011;25774;52.256;9.356;2023-05-07T14:02:21;4.50;;;3.03;;
40072;SDS011;25774;52.256;9.356;2023-05-07T14:04:46;5.23;;;3.27;;
40072;SDS011;25774;52.256;9.356;2023-05-07T14:07:11;6.03;;;4.20;;
40072;SDS011;25774;52.256;9.356;2023-05-07T14:09:36;4.93;;;3.57;;
40072;SDS011;25774;52.256;9.356;2023-05-07T14:14:27;5.90;;;4.13;;
40072;SDS011;25774;52.256;9.356;2023-05-07T14:19:17;6.93;;;4.33;;
40072;SDS011;25774;52.256;9.356;2023-05-07T14:21:42;9.00;;;4.40;;
40072;SDS011;25774;52.256;9.356;2023-05-07T14:24:08;7.77;;;5.37;;
40072;SDS011;25774;52.256;9.356;2023-05-07T14:26:36;6.18;;;4.45;;
40072;SDS011;25774;52.256;9.356;2023-05-07T14:29:01;7.57;;;4.63;;
40072;SDS011;25774;52.256;9.356;2023-05-07T14:31:26;7.10;;;4.22;;
40072;SDS011;25774;52.256;9.356;2023-05-07T14:33:52;5.30;;;4.30;;
40072;SDS011;25774;52.256;9.356;2023-05-07T14:36:18;7.45;;;4.40;;
40072;SDS011;25774;52.256;9.356;2023-05-07T14:38:45;7.32;;;4.88;;
40072;SDS011;25774;52.256;9.356;2023-05-07T14:43:35;4.77;;;3.60;;
40072;SDS011;25774;52.256;9.356;2023-05-07T14:48:25;5.63;;;4.07;;
40072;SDS011;25774;52.256;9.356;2023-05-07T14:50:51;5.53;;;3.97;;
40072;SDS011;25774;52.256;9.356;2023-05-07T14:53:16;6.27;;;4.77;;
40072;SDS011;25774;52.256;9.356;2023-05-07T14:55:41;7.18;;;4.82;;
40072;SDS011;25774;52.256;9.356;2023-05-07T14:58:06;7.83;;;4.43;;
40072;SDS011;25774;52.256;9.356;2023-05-07T15:00:33;5.80;;;4.35;;
40072;SDS011;25774;52.256;9.356;2023-05-07T15:03:01;8.30;;;4.85;;
40072;SDS011;25774;52.256;9.356;2023-05-07T15:05:29;5.90;;;4.10;;
40072;SDS011;25774;52.256;9.356;2023-05-07T15:07:54;6.07;;;4.80;;
40072;SDS011;25774;52.256;9.356;2023-05-07T15:10:20;5.63;;;4.32;;
40072;SDS011;25774;52.256;9.356;2023-05-07T15:12:47;5.90;;;4.27;;
40072;SDS011;25774;52.256;9.356;2023-05-07T15:17:37;5.97;;;4.32;;